Current Weather

Knoxville Muni

Knoxville, Iowa (KOXV)

Report from: Wednesday, August 17, 2022 9:15 PM CDT
Current time: Wednesday, August 17, 2022 9:39 PM CDT

Nearby weather
Weather history
Weather forecast

Temperature23.0°C (73.4°F)
Dew point14.0°C (57.2°F)
Winds Calm
Visibility10 mi. (16.1 km)
Clouds Sky clear
Altimeter30.09 in.Hg (1019 mB)
Relative humidity57 %
Density altitude961 ft. (293 m)
Remarks Fully automated report
Automated weather observing station with precipitation discriminator
Flight conditions Visual Meteorological Conditions
Raw dataKOXV 180215Z AUTO 00000KT 10SM CLR 23/14 A3009 RMK AO2
An error has occurred. This application may no longer respond until reloaded. Reload 🗙